createdAt,value
2023-05-25T00:02:09.467Z,63.67
2023-05-25T00:04:38.770Z,63.92
2023-05-25T00:07:08.218Z,64.01
2023-05-25T00:09:37.153Z,63.84
2023-05-25T00:12:06.666Z,64.03
2023-05-25T00:14:36.348Z,64.04
2023-05-25T00:17:06.139Z,63.75
2023-05-25T00:19:35.712Z,63.77
2023-05-25T00:22:05.475Z,63.67
2023-05-25T00:24:34.572Z,64.15
2023-05-25T00:27:04.384Z,64.53
2023-05-25T00:29:34.290Z,64.06
2023-05-25T00:32:03.576Z,64.14
2023-05-25T00:34:33.239Z,64.31
2023-05-25T00:37:02.405Z,64.49
2023-05-25T00:39:32.006Z,64.57
2023-05-25T00:42:03.727Z,64.36
2023-05-25T00:44:33.816Z,64.32
2023-05-25T00:47:05.902Z,64.40
2023-05-25T00:49:37.258Z,64.45
2023-05-25T00:52:07.003Z,64.52
2023-05-25T00:54:37.990Z,64.47
2023-05-25T00:57:08.532Z,64.51
2023-05-25T00:59:45.586Z,64.73
2023-05-25T01:02:17.783Z,64.69
2023-05-25T01:04:53.472Z,64.54
2023-05-25T01:07:25.712Z,64.30
2023-05-25T01:10:08.495Z,64.53
2023-05-25T01:12:41.215Z,64.65
2023-05-25T01:15:11.206Z,64.59
2023-05-25T01:17:40.770Z,64.79
2023-05-25T01:20:12.020Z,65.19
2023-05-25T01:22:48.120Z,65.39
2023-05-25T01:25:25.262Z,65.06
2023-05-25T01:28:22.471Z,64.91
2023-05-25T01:30:52.433Z,65.13
2023-05-25T01:33:22.425Z,65.37
2023-05-25T01:35:52.490Z,65.78
2023-05-25T01:38:21.555Z,65.60
2023-05-25T01:40:51.029Z,65.68
2023-05-25T01:43:20.313Z,65.74
2023-05-25T01:45:50.019Z,65.81
2023-05-25T01:48:41.792Z,65.60
2023-05-25T01:51:36.907Z,65.38
2023-05-25T01:54:19.001Z,65.62
2023-05-25T01:56:51.643Z,65.91
2023-05-25T01:59:22.643Z,65.89
2023-05-25T02:01:53.302Z,66.02
2023-05-25T02:04:23.021Z,66.42
2023-05-25T02:06:55.085Z,66.48
2023-05-25T02:09:24.115Z,66.37
2023-05-25T02:11:54.781Z,66.22
2023-05-25T02:14:23.812Z,66.54
2023-05-25T02:16:52.992Z,66.79
2023-05-25T02:19:22.916Z,66.90
2023-05-25T02:21:51.927Z,66.79
2023-05-25T02:24:24.417Z,66.56
2023-05-25T02:26:54.244Z,66.49
2023-05-25T02:29:23.300Z,66.64
2023-05-25T02:31:52.173Z,66.37
2023-05-25T02:34:22.284Z,66.13
2023-05-25T02:36:51.670Z,66.18
2023-05-25T02:39:20.889Z,66.29
2023-05-25T02:41:49.821Z,66.25
2023-05-25T02:44:18.732Z,66.24
2023-05-25T02:46:47.599Z,66.27
2023-05-25T02:49:16.581Z,66.53
2023-05-25T02:51:45.639Z,66.35
2023-05-25T02:54:14.689Z,65.84
2023-05-25T02:56:43.723Z,65.65
2023-05-25T02:59:13.679Z,65.92
2023-05-25T03:01:43.235Z,65.97
2023-05-25T03:04:12.495Z,65.71
2023-05-25T03:06:41.728Z,65.36
2023-05-25T03:09:10.926Z,65.41
2023-05-25T03:11:40.208Z,65.73
2023-05-25T03:14:11.441Z,66.09
2023-05-25T03:16:41.632Z,66.11
2023-05-25T03:19:12.289Z,66.02
2023-05-25T03:21:41.683Z,66.52
2023-05-25T03:24:11.337Z,66.82
2023-05-25T03:26:41.245Z,66.77
2023-05-25T03:29:10.988Z,66.73
2023-05-25T03:31:40.444Z,67.16
2023-05-25T03:34:10.004Z,67.81
2023-05-25T03:36:39.550Z,68.47
2023-05-25T03:39:10.698Z,69.12
2023-05-25T03:41:39.893Z,69.07
2023-05-25T03:44:11.348Z,68.67
2023-05-25T03:46:41.050Z,68.66
2023-05-25T03:49:14.271Z,68.76
2023-05-25T03:51:43.920Z,68.98
2023-05-25T03:54:13.007Z,68.45
2023-05-25T03:56:42.518Z,68.49
2023-05-25T03:59:11.922Z,68.21
2023-05-25T04:01:41.159Z,67.89
2023-05-25T04:04:10.887Z,67.28
2023-05-25T04:06:40.643Z,67.03
2023-05-25T04:09:10.625Z,67.06
2023-05-25T04:11:39.865Z,67.70
2023-05-25T04:14:08.723Z,67.35
2023-05-25T04:16:37.722Z,66.89
2023-05-25T04:19:07.192Z,65.06
2023-05-25T04:21:36.700Z,64.27
2023-05-25T04:24:06.899Z,64.20
2023-05-25T04:26:36.140Z,64.21
2023-05-25T04:29:05.129Z,63.95
2023-05-25T04:31:34.147Z,63.69
2023-05-25T04:34:03.400Z,64.50
2023-05-25T04:36:35.468Z,65.68
2023-05-25T04:39:05.182Z,66.10
2023-05-25T04:41:34.478Z,65.68
2023-05-25T04:44:09.685Z,65.35
2023-05-25T04:46:41.408Z,65.63
2023-05-25T04:49:10.647Z,65.85
2023-05-25T04:51:40.394Z,65.92
2023-05-25T04:54:09.526Z,65.81
2023-05-25T04:56:38.739Z,65.69
2023-05-25T04:59:08.588Z,66.22
2023-05-25T05:01:41.660Z,66.04
2023-05-25T05:04:11.628Z,65.62
2023-05-25T05:06:41.180Z,65.57
2023-05-25T05:09:10.287Z,65.46
2023-05-25T05:11:39.521Z,65.61
2023-05-25T05:14:08.913Z,65.79
2023-05-25T05:16:38.580Z,65.33
2023-05-25T05:19:08.648Z,65.25
2023-05-25T05:21:38.263Z,65.16
2023-05-25T05:24:08.120Z,65.05
2023-05-25T05:26:55.511Z,64.98
2023-05-25T05:29:27.197Z,64.69
2023-05-25T05:31:56.988Z,64.58
2023-05-25T05:34:27.392Z,64.52
2023-05-25T05:36:58.901Z,64.09
2023-05-25T05:39:28.658Z,63.37
2023-05-25T05:41:59.206Z,63.43
2023-05-25T05:44:29.481Z,63.44
2023-05-25T05:47:02.666Z,63.29
2023-05-25T05:49:32.957Z,62.57
2023-05-25T05:52:03.983Z,62.25
2023-05-25T05:54:33.853Z,62.10
2023-05-25T05:57:03.048Z,61.83
2023-05-25T05:59:32.273Z,61.81
2023-05-25T06:02:01.620Z,61.62
2023-05-25T06:04:31.382Z,61.22
2023-05-25T06:07:01.172Z,61.05
2023-05-25T06:09:31.102Z,60.80
2023-05-25T06:12:00.399Z,60.08
2023-05-25T06:14:29.705Z,59.50
2023-05-25T06:16:59.752Z,58.90
2023-05-25T06:19:29.320Z,58.01
2023-05-25T06:21:58.692Z,57.69
2023-05-25T06:24:28.208Z,57.08
2023-05-25T06:26:57.691Z,56.84
2023-05-25T06:29:26.597Z,56.31
2023-05-25T06:31:55.858Z,56.09
2023-05-25T06:34:25.994Z,55.61
2023-05-25T06:36:55.732Z,55.35
2023-05-25T06:39:25.061Z,55.02
2023-05-25T06:41:56.695Z,55.06
2023-05-25T06:44:25.791Z,54.71
2023-05-25T06:46:55.125Z,54.57
2023-05-25T06:49:24.139Z,54.80
2023-05-25T06:51:53.791Z,55.09
2023-05-25T06:54:23.010Z,55.01
2023-05-25T06:56:52.433Z,55.27
2023-05-25T06:59:21.679Z,55.45
2023-05-25T07:01:51.487Z,55.46
2023-05-25T07:04:22.696Z,55.48
2023-05-25T07:06:52.765Z,55.16
2023-05-25T07:09:22.751Z,55.06
2023-05-25T07:11:52.054Z,55.00
2023-05-25T07:14:21.782Z,54.49
2023-05-25T07:16:51.263Z,54.08
2023-05-25T07:19:20.443Z,53.13
2023-05-25T07:21:50.463Z,52.23
2023-05-25T07:24:20.068Z,51.08
2023-05-25T07:26:50.290Z,50.53
2023-05-25T07:29:19.648Z,49.65
2023-05-25T07:31:48.946Z,48.68
2023-05-25T07:34:19.053Z,47.69
2023-05-25T07:36:48.464Z,47.07
2023-05-25T07:39:18.411Z,46.36
2023-05-25T07:41:47.188Z,45.63
2023-05-25T07:44:16.439Z,44.39
2023-05-25T07:46:46.099Z,44.27
2023-05-25T07:49:16.731Z,43.68
2023-05-25T07:51:46.602Z,43.00
2023-05-25T07:54:15.983Z,42.50
2023-05-25T07:56:45.023Z,41.70
2023-05-25T07:59:15.139Z,41.87
2023-05-25T08:01:44.466Z,40.91
2023-05-25T08:04:13.762Z,40.33
2023-05-25T08:06:45.427Z,39.60
2023-05-25T08:09:14.932Z,38.82
2023-05-25T08:11:46.582Z,38.31
2023-05-25T08:14:16.600Z,37.80
2023-05-25T08:16:46.108Z,37.59
2023-05-25T08:19:15.277Z,36.72
2023-05-25T08:21:44.925Z,36.46
2023-05-25T08:24:14.466Z,35.76
2023-05-25T08:26:54.479Z,35.60
2023-05-25T08:29:24.538Z,35.39
2023-05-25T08:31:53.754Z,34.76
2023-05-25T08:34:23.804Z,34.66
2023-05-25T08:36:53.680Z,34.49
2023-05-25T08:39:22.883Z,34.25
2023-05-25T08:41:52.146Z,33.74
2023-05-25T08:44:22.325Z,33.67
2023-05-25T08:46:52.384Z,33.22
2023-05-25T08:49:23.671Z,32.82
2023-05-25T08:51:55.248Z,32.73
2023-05-25T08:54:33.175Z,33.18
2023-05-25T08:57:21.595Z,33.16
2023-05-25T08:59:58.363Z,32.79
2023-05-25T09:02:28.314Z,32.55
2023-05-25T09:05:00.669Z,31.99
2023-05-25T09:07:31.548Z,32.06
2023-05-25T09:10:02.837Z,31.59
2023-05-25T09:12:32.404Z,31.16
2023-05-25T09:15:01.738Z,30.69
2023-05-25T09:17:31.383Z,30.20
2023-05-25T09:20:01.357Z,30.29
2023-05-25T09:22:30.471Z,29.83
2023-05-25T09:25:00.200Z,29.54
2023-05-25T09:27:29.426Z,29.00
2023-05-25T09:30:01.686Z,28.71
2023-05-25T09:32:31.755Z,28.57
2023-05-25T09:35:15.179Z,28.28
2023-05-25T09:37:45.731Z,28.14
2023-05-25T09:40:17.484Z,28.07
2023-05-25T09:42:47.889Z,28.21
2023-05-25T09:45:17.925Z,28.46
2023-05-25T09:47:47.503Z,28.06
2023-05-25T09:50:18.522Z,27.93
2023-05-25T09:52:48.037Z,27.51
2023-05-25T09:55:17.664Z,27.25
2023-05-25T09:57:46.975Z,27.38
2023-05-25T10:00:17.420Z,27.48
2023-05-25T10:02:47.242Z,27.20
2023-05-25T10:05:17.658Z,26.74
2023-05-25T10:07:49.360Z,26.53
2023-05-25T10:10:19.660Z,26.33
2023-05-25T10:12:53.838Z,26.15
2023-05-25T10:15:24.262Z,25.79
2023-05-25T10:17:56.046Z,25.41
2023-05-25T10:20:29.086Z,25.27
2023-05-25T10:23:10.238Z,25.17
2023-05-25T10:25:49.735Z,25.21
2023-05-25T10:28:27.358Z,25.01
2023-05-25T10:30:58.906Z,24.83
2023-05-25T10:38:41.951Z,24.57
2023-05-25T10:41:12.883Z,24.58
2023-05-25T10:43:43.482Z,24.39
2023-05-25T10:46:15.674Z,24.40
2023-05-25T10:48:50.953Z,24.33
2023-05-25T10:51:21.527Z,23.86
2023-05-25T10:54:01.664Z,23.97
2023-05-25T10:56:30.669Z,24.02
2023-05-25T10:59:00.872Z,23.81
2023-05-25T11:01:34.077Z,23.45
2023-05-25T11:04:07.174Z,23.28
2023-05-25T11:06:44.427Z,23.25
2023-05-25T11:09:28.341Z,22.97
2023-05-25T11:11:57.278Z,22.37
2023-05-25T11:14:31.573Z,21.86
2023-05-25T11:17:15.454Z,22.45
2023-05-25T11:19:54.138Z,22.30
2023-05-25T11:22:33.170Z,22.36
2023-05-25T11:25:04.075Z,22.39
2023-05-25T11:27:33.251Z,21.72
2023-05-25T11:30:03.312Z,21.50
2023-05-25T11:32:33.092Z,21.23
2023-05-25T11:35:02.665Z,20.38
2023-05-25T11:37:34.409Z,20.70
2023-05-25T11:40:08.380Z,22.02
2023-05-25T11:42:39.307Z,23.12
2023-05-25T11:45:12.353Z,22.98
2023-05-25T11:47:42.809Z,22.65
2023-05-25T11:50:18.284Z,22.20
2023-05-25T11:52:47.796Z,21.51
2023-05-25T11:55:17.069Z,21.99
2023-05-25T11:57:46.099Z,22.33
2023-05-25T12:00:26.121Z,21.52
2023-05-25T12:02:57.067Z,21.22
2023-05-25T12:05:26.628Z,21.04
2023-05-25T12:07:55.956Z,21.45
2023-05-25T12:10:25.113Z,21.50
2023-05-25T12:12:59.008Z,21.79
2023-05-25T12:15:30.418Z,21.58
2023-05-25T12:18:00.213Z,20.81
2023-05-25T12:20:29.712Z,20.62
2023-05-25T12:22:59.547Z,20.44
2023-05-25T12:25:38.745Z,21.14
2023-05-25T12:28:19.033Z,22.32
2023-05-25T12:30:48.249Z,22.50
2023-05-25T12:33:18.302Z,22.11
2023-05-25T12:35:50.201Z,21.30
2023-05-25T12:38:24.460Z,21.63
2023-05-25T12:41:17.949Z,21.96
2023-05-25T12:43:47.620Z,22.19
2023-05-25T12:46:26.692Z,21.68
2023-05-25T12:48:56.796Z,22.14
2023-05-25T12:51:26.292Z,22.57
2023-05-25T12:53:58.097Z,22.78
2023-05-25T12:56:28.729Z,23.35
2023-05-25T12:59:15.044Z,23.59
2023-05-25T13:01:45.175Z,25.40
2023-05-25T13:04:14.902Z,27.58
2023-05-25T13:06:44.832Z,28.45
2023-05-25T13:09:16.728Z,29.11
2023-05-25T13:11:46.000Z,29.14
2023-05-25T13:14:15.280Z,29.26
2023-05-25T13:16:44.650Z,29.33
2023-05-25T13:19:14.090Z,29.48
2023-05-25T13:21:44.416Z,29.60
2023-05-25T13:24:13.446Z,30.00
2023-05-25T13:26:46.926Z,30.37
2023-05-25T13:29:19.421Z,30.85
2023-05-25T13:31:49.324Z,31.43
2023-05-25T13:34:19.097Z,32.07
2023-05-25T13:36:49.493Z,32.44
2023-05-25T13:39:18.861Z,32.99
2023-05-25T13:41:49.195Z,33.30
2023-05-25T13:44:20.384Z,33.66
2023-05-25T13:46:49.928Z,33.96
2023-05-25T13:49:20.335Z,34.37
2023-05-25T13:51:49.803Z,34.57
2023-05-25T13:54:19.485Z,34.69
2023-05-25T13:56:49.689Z,34.85
2023-05-25T13:59:19.362Z,34.72
2023-05-25T14:01:48.750Z,35.38
2023-05-25T14:04:18.250Z,35.87
2023-05-25T14:06:48.121Z,36.18
2023-05-25T14:09:18.062Z,36.58
2023-05-25T14:11:47.371Z,36.69
2023-05-25T14:14:30.000Z,37.58
2023-05-25T14:17:01.713Z,37.88
2023-05-25T14:19:31.487Z,39.09
2023-05-25T14:22:12.317Z,39.66
2023-05-25T14:24:43.757Z,39.26
2023-05-25T14:27:14.413Z,39.49
2023-05-25T14:29:44.026Z,39.66
2023-05-25T14:32:15.059Z,40.05
2023-05-25T14:34:45.612Z,40.47
2023-05-25T14:37:15.431Z,40.19
2023-05-25T14:39:45.042Z,40.80
2023-05-25T14:42:14.532Z,41.13
2023-05-25T14:44:44.768Z,41.52
2023-05-25T14:47:15.062Z,40.94
2023-05-25T14:49:44.462Z,39.86
2023-05-25T14:52:13.480Z,39.20
2023-05-25T14:54:45.534Z,38.50
2023-05-25T14:57:16.910Z,38.02
2023-05-25T14:59:46.558Z,37.44
2023-05-25T15:02:15.671Z,37.08
2023-05-25T15:04:45.020Z,36.99
2023-05-25T15:07:15.178Z,36.61
2023-05-25T15:09:46.218Z,36.24
2023-05-25T15:12:16.397Z,33.79
2023-05-25T15:14:45.474Z,32.41
2023-05-25T15:17:14.729Z,31.06
2023-05-25T15:19:44.255Z,30.63
2023-05-25T15:22:13.730Z,30.00
2023-05-25T15:24:43.260Z,30.12
2023-05-25T15:27:12.519Z,30.01
2023-05-25T15:29:41.694Z,29.93
2023-05-25T15:32:13.492Z,29.61
2023-05-25T15:34:42.539Z,29.38
2023-05-25T15:37:12.991Z,29.71
2023-05-25T15:39:42.525Z,30.63
2023-05-25T15:42:13.089Z,30.83
2023-05-25T15:44:42.478Z,31.69
2023-05-25T15:47:11.730Z,32.28
2023-05-25T15:49:41.551Z,32.71
2023-05-25T15:52:11.454Z,33.16
2023-05-25T15:54:40.940Z,33.85
2023-05-25T15:57:10.255Z,34.18
2023-05-25T15:59:39.993Z,34.91
2023-05-25T16:02:09.961Z,35.82
2023-05-25T16:04:40.036Z,36.08
2023-05-25T16:31:40.515Z,40.25
2023-05-25T16:34:09.699Z,40.70
2023-05-25T16:36:38.659Z,41.02
2023-05-25T16:39:08.403Z,41.47
2023-05-25T16:41:37.141Z,41.94
2023-05-25T16:44:05.921Z,41.95
2023-05-25T16:46:34.603Z,42.30
2023-05-25T16:49:03.642Z,42.36
2023-05-25T16:51:32.419Z,42.35
2023-05-25T16:54:01.366Z,42.74
2023-05-25T16:56:30.707Z,43.18
2023-05-25T16:58:59.525Z,42.83
2023-05-25T17:01:28.972Z,42.83
2023-05-25T17:03:58.259Z,43.11
2023-05-25T17:06:27.163Z,43.25
2023-05-25T17:08:56.132Z,43.53
2023-05-25T17:11:26.938Z,44.06
2023-05-25T17:13:56.182Z,44.24
2023-05-25T17:16:25.043Z,44.67
2023-05-25T17:18:54.089Z,45.28
2023-05-25T17:21:23.730Z,45.91
2023-05-25T17:23:52.955Z,46.24
2023-05-25T17:26:23.424Z,46.63
2023-05-25T17:28:52.139Z,46.78
2023-05-25T17:31:20.959Z,46.72
2023-05-25T17:33:55.050Z,46.95
2023-05-25T17:36:25.123Z,47.57
2023-05-25T17:38:54.109Z,47.77
2023-05-25T17:41:23.348Z,48.15
2023-05-25T17:43:52.534Z,48.75
2023-05-25T17:46:22.741Z,49.32
2023-05-25T17:48:51.828Z,50.07
2023-05-25T17:51:23.664Z,50.11
2023-05-25T17:53:52.774Z,50.14
2023-05-25T17:56:22.788Z,50.54
2023-05-25T17:58:52.900Z,50.67
2023-05-25T18:01:23.044Z,50.81
2023-05-25T18:03:53.826Z,51.10
2023-05-25T18:06:22.954Z,51.55
2023-05-25T18:08:52.604Z,52.08
2023-05-25T18:11:22.408Z,52.64
2023-05-25T18:13:51.700Z,53.06
2023-05-25T18:16:21.790Z,53.81
2023-05-25T18:18:53.027Z,54.23
2023-05-25T18:21:23.607Z,54.54
2023-05-25T18:23:53.098Z,54.74
2023-05-25T18:26:22.383Z,54.88
2023-05-25T18:28:51.599Z,55.44
2023-05-25T18:31:20.835Z,55.62
2023-05-25T18:33:50.349Z,55.65
2023-05-25T18:36:19.614Z,56.00
2023-05-25T18:38:49.695Z,56.22
2023-05-25T18:41:21.463Z,56.43
2023-05-25T18:43:51.984Z,56.29
2023-05-25T18:46:22.509Z,56.16
2023-05-25T18:48:52.883Z,55.99
2023-05-25T18:51:26.139Z,56.54
2023-05-25T18:53:56.219Z,57.06
2023-05-25T18:56:25.649Z,57.23
2023-05-25T18:58:55.879Z,57.68
2023-05-25T19:01:28.683Z,57.10
2023-05-25T19:03:58.812Z,57.02
2023-05-25T19:06:28.658Z,56.65
2023-05-25T19:08:58.152Z,56.08
2023-05-25T19:11:27.709Z,54.53
2023-05-25T19:13:56.792Z,54.10
2023-05-25T19:16:26.774Z,54.10
2023-05-25T19:18:57.201Z,53.88
2023-05-25T19:21:27.259Z,54.07
2023-05-25T19:23:58.441Z,53.94
2023-05-25T19:26:28.332Z,54.06
2023-05-25T19:28:57.986Z,53.84
2023-05-25T19:31:30.334Z,53.74
2023-05-25T19:34:00.140Z,53.61
2023-05-25T19:36:30.412Z,53.65
2023-05-25T19:39:00.534Z,53.57
2023-05-25T19:41:30.712Z,53.65
2023-05-25T19:43:59.705Z,53.50
2023-05-25T19:46:32.040Z,53.50
2023-05-25T19:49:02.335Z,53.48
2023-05-25T19:51:34.280Z,53.37
2023-05-25T19:54:05.263Z,53.55
2023-05-25T19:56:36.645Z,53.14
2023-05-25T19:59:06.428Z,53.87
2023-05-25T20:01:37.298Z,54.24
2023-05-25T20:04:08.341Z,54.38
2023-05-25T20:06:39.692Z,54.19
2023-05-25T20:09:13.069Z,53.99
2023-05-25T20:11:43.476Z,53.77
2023-05-25T20:14:13.078Z,54.00
2023-05-25T20:16:43.091Z,54.19
2023-05-25T20:19:13.519Z,54.56
2023-05-25T20:21:42.976Z,54.61
2023-05-25T20:24:11.921Z,54.74
2023-05-25T20:26:45.174Z,54.92
2023-05-25T20:29:15.786Z,54.77
2023-05-25T20:31:46.464Z,54.80
2023-05-25T20:34:16.315Z,54.51
2023-05-25T20:36:46.369Z,54.65
2023-05-25T20:39:16.898Z,54.92
2023-05-25T20:41:46.313Z,55.23
2023-05-25T20:44:16.785Z,55.34
2023-05-25T20:46:46.715Z,55.75
2023-05-25T20:49:18.287Z,55.95
2023-05-25T20:51:53.014Z,55.98
2023-05-25T20:54:22.873Z,56.04
2023-05-25T20:56:53.421Z,56.48
2023-05-25T20:59:24.659Z,56.36
2023-05-25T21:01:54.356Z,56.16
2023-05-25T21:04:24.036Z,55.78
2023-05-25T21:06:53.814Z,55.72
2023-05-25T21:09:23.930Z,55.70
2023-05-25T21:11:53.692Z,55.62
2023-05-25T21:14:25.966Z,55.72
2023-05-25T21:16:57.344Z,55.93
2023-05-25T21:19:28.067Z,56.05
2023-05-25T21:22:00.474Z,56.15
2023-05-25T21:24:31.277Z,55.90
2023-05-25T21:27:03.511Z,56.02
2023-05-25T21:29:32.532Z,56.07
2023-05-25T21:32:02.843Z,55.77
2023-05-25T21:34:32.830Z,55.46
2023-05-25T21:37:02.726Z,55.32
2023-05-25T21:39:32.375Z,55.63
2023-05-25T21:42:02.870Z,55.96
2023-05-25T21:44:33.379Z,56.01
2023-05-25T21:47:03.582Z,56.07
2023-05-25T21:49:34.244Z,56.04
2023-05-25T21:52:04.294Z,56.36
2023-05-25T21:54:33.687Z,56.27
2023-05-25T21:57:04.581Z,56.27
2023-05-25T21:59:34.091Z,56.68
2023-05-25T22:02:04.275Z,56.66
2023-05-25T22:04:33.890Z,56.78
2023-05-25T22:07:03.366Z,56.84
2023-05-25T22:09:32.705Z,56.67
2023-05-25T22:12:03.360Z,56.56
2023-05-25T22:14:32.627Z,56.53
2023-05-25T22:17:02.215Z,56.72
2023-05-25T22:19:32.726Z,56.92
2023-05-25T22:22:02.179Z,57.00
2023-05-25T22:24:31.079Z,57.06
2023-05-25T22:27:00.218Z,57.05
2023-05-25T22:29:29.370Z,57.30
2023-05-25T22:31:58.823Z,57.16
2023-05-25T22:34:28.030Z,57.11
2023-05-25T22:36:57.244Z,57.09
2023-05-25T22:39:26.630Z,57.34
2023-05-25T22:41:55.992Z,57.79
2023-05-25T22:44:25.109Z,57.71
2023-05-25T22:46:54.622Z,57.74
2023-05-25T22:49:24.063Z,57.71
2023-05-25T22:51:53.223Z,57.86
2023-05-25T22:54:22.509Z,58.19
2023-05-25T22:56:52.313Z,58.17
2023-05-25T22:59:21.506Z,58.00
2023-05-25T23:01:51.537Z,58.32
2023-05-25T23:04:20.987Z,58.38
2023-05-25T23:06:50.108Z,58.44
2023-05-25T23:09:19.116Z,58.96
2023-05-25T23:11:48.711Z,58.83
2023-05-25T23:14:17.779Z,58.89
2023-05-25T23:16:49.097Z,58.86
2023-05-25T23:19:18.520Z,59.14
2023-05-25T23:21:49.112Z,59.22
2023-05-25T23:24:18.591Z,59.11
2023-05-25T23:26:47.837Z,58.94
2023-05-25T23:29:17.408Z,58.79
2023-05-25T23:31:47.413Z,59.01
2023-05-25T23:34:16.486Z,59.24
2023-05-25T23:36:46.571Z,59.35
2023-05-25T23:39:16.452Z,59.16
2023-05-25T23:41:45.363Z,59.26
2023-05-25T23:44:14.560Z,59.31
2023-05-25T23:46:43.748Z,59.41
2023-05-25T23:49:12.663Z,59.73
2023-05-25T23:51:41.942Z,59.57
2023-05-25T23:54:11.360Z,59.73
2023-05-25T23:56:40.537Z,59.74
2023-05-25T23:59:09.782Z,59.98
